Broken Arrow, OK (74012)

5:24 AM CDT on March 31, 2015 (GMT -0500)
Country Aire | | Change Station
CLOSE
Current Station
Personal Weather Station
Location: Broken Arrow, OK
Elevation: 697 ft
Nearby Weather Stations

Elev 697 ft 36.05 °N, 95.82 °W | Updated 19 seconds ago

Partly Cloudy
Partly Cloudy
57.8 °F
Feels Like 57.8 °F
N
0.0
Wind Variable Wind from South
Gusts 2.0 mph

Today
High -- | Low -- °F
--% Chance of Precip.
Yesterday
High -- | Low -- °F
Precip. -- in
7:11 AM 7:44 PM
Waxing Gibbous, 86% visible
Pressure 29.92 in
Visibility 9.0 miles
Clouds Scattered Clouds 20000 ft
Mostly Cloudy 25000 ft
Dew Point 57 °F
Humidity 96%
Rainfall 0.00 in
Snow Depth Not available.
UV 0.0 out of 12
Pollen 11.80 out of 12
Air Quality Not available.
Flu Activity Not available.
METAR KTUL 310953Z 18004KT 9SM SCT200 BKN250 17/16 A2993 RMK AO2 SLP130 T01670156

More Conditions Fewer Conditions

Pressure 29.92 in
Visibility 9.0 miles
Clouds Scattered Clouds 20000 ft
Mostly Cloudy 25000 ft
Dew Point 57 °F
Humidity 96%
Rainfall 0.00 in
Snow Depth Not available.
UV 0.0 out of 12
Pollen 11.80 out of 12
Air Quality Not available.
Flu Activity Not available.
METAR KTUL 310953Z 18004KT 9SM SCT200 BKN250 17/16 A2993 RMK AO2 SLP130 T01670156

More Conditions Fewer Conditions

10-Day Weather Forecast

Almanac

Astronomy

Mar. 31, 2015 Rise Set
Actual Time
Civil Twilight
Nautical Twilight
Astronomical Twilight
Moon
Length of Visible Light
Length of Day
Tomorrow will be .
, % of the Moon is Illuminated

Today's Extremes

State Highs State Lows

Community

WunderPhotos

Upload Photos

1,809,736 photos uploaded!

WunderBlogs® & News

Nearby

Air Quality

  Air Quality AQ Index Pollutant
Not available.

Snow Depth

Station Depth Elevation

Earthquake Activity

City Distance Mag. Time & Date
Minimum magnitude displayed is 2.5.

Coastal Water Temperatures

Place Temperature

Stations

Nearby Weather Stations

Station Location Temp. Windchill Dew Point Humidity Wind Precip. Elev Updated Type